Time;durP1;ratioP1;P1;durP2;ratioP2;P2;SDS_P1;SDS_P2;PMS_P1;PMS_P2;Temp;Humidity;BMP_temperature;BMP_pressure;BME280_temperature;BME280_humidity;BME280_pressure;Samples;Min_cycle;Max_cycle;Signal;HPM_P1;HPM_P2
2021/04/20 00:00:25;;;;;;;6.10;1.45;;;;;;;9.65;36.23;101186.84;5086060;28;20360;-65
2021/04/20 00:02:51;;;;;;;5.88;2.50;;;;;;;9.46;36.88;101191.00;5085745;28;20020;-66
2021/04/20 00:05:18;;;;;;;2.83;1.67;;;;;;;9.38;36.85;101188.34;5085592;28;20074;-65
2021/04/20 00:07:44;;;;;;;3.92;2.45;;;;;;;9.29;37.13;101194.34;5085653;28;20020;-65
2021/04/20 00:10:13;;;;;;;7.40;2.42;;;;;;;9.29;37.04;101185.69;5085863;28;20026;-66
2021/04/20 00:12:38;;;;;;;4.30;2.30;;;;;;;9.20;37.10;101188.19;5085715;28;20035;-67
2021/04/20 00:15:08;;;;;;;3.60;1.92;;;;;;;9.32;36.96;101183.13;5085706;28;20016;-65
2021/04/20 00:17:34;;;;;;;5.18;1.88;;;;;;;9.30;37.24;101179.63;5085535;28;20115;-65
2021/04/20 00:19:59;;;;;;;3.20;1.50;;;;;;;9.16;37.47;101172.63;5085827;28;20028;-66
2021/04/20 00:22:24;;;;;;;6.45;2.20;;;;;;;9.03;37.56;101171.63;5085726;28;20117;-67
2021/04/20 00:24:50;;;;;;;6.38;2.28;;;;;;;8.96;37.62;101162.03;5085604;28;20029;-68
2021/04/20 00:27:15;;;;;;;3.60;2.00;;;;;;;8.88;37.92;101161.09;5085910;28;20020;-68
2021/04/20 00:29:40;;;;;;;5.15;2.60;;;;;;;8.82;37.82;101161.88;5085422;28;20504;-66
2021/04/20 00:32:07;;;;;;;5.50;1.88;;;;;;;8.91;38.05;101163.72;5085164;28;20032;-67
2021/04/20 00:34:32;;;;;;;5.38;2.70;;;;;;;8.90;37.90;101155.06;5085603;28;20028;-69
2021/04/20 00:36:57;;;;;;;7.03;2.33;;;;;;;8.83;37.94;101148.09;5085589;28;20048;-67
2021/04/20 00:39:23;;;;;;;4.97;2.28;;;;;;;8.93;37.86;101155.09;5085238;28;20054;-67
2021/04/20 00:42:05;;;;;;;6.30;2.83;;;;;;;9.02;37.76;101148.28;5084222;28;20023;-67
2021/04/20 00:44:31;;;;;;;4.28;2.00;;;;;;;8.95;37.75;101154.25;5085164;28;20024;-67
2021/04/20 00:46:58;;;;;;;4.18;2.13;;;;;;;8.85;37.97;101150.72;5084836;28;20021;-67
2021/04/20 00:49:24;;;;;;;4.28;2.00;;;;;;;8.85;38.26;101146.38;5085177;28;20060;-67
2021/04/20 00:51:51;;;;;;;6.50;2.45;;;;;;;8.80;38.06;101154.09;5085067;28;20052;-68
2021/04/20 00:54:16;;;;;;;5.93;2.45;;;;;;;8.77;38.07;101148.88;5085038;28;20027;-67
2021/04/20 00:56:42;;;;;;;6.70;2.47;;;;;;;8.76;38.31;101146.28;5084878;28;20024;-67
2021/04/20 00:59:07;;;;;;;5.72;2.60;;;;;;;8.86;38.15;101150.72;5085039;28;20029;-67
2021/04/20 01:01:33;;;;;;;3.15;1.63;;;;;;;8.80;38.23;101142.91;5084724;28;20044;-67
2021/04/20 01:04:02;;;;;;;5.32;2.13;;;;;;;8.72;38.26;101147.13;5084750;28;20021;-68
2021/04/20 01:06:27;;;;;;;4.82;2.40;;;;;;;8.77;38.38;101148.03;5084932;28;20031;-66
2021/04/20 01:08:53;;;;;;;6.60;2.28;;;;;;;8.67;38.34;101141.88;5084919;28;20076;-67
2021/04/20 01:11:20;;;;;;;3.40;1.58;;;;;;;8.73;38.48;101138.47;5084893;28;20053;-67
2021/04/20 01:13:46;;;;;;;3.58;2.15;;;;;;;8.71;38.41;101148.81;5084775;28;20028;-68
2021/04/20 01:16:12;;;;;;;5.43;2.55;;;;;;;8.54;38.97;101136.56;5084209;28;20024;-67
2021/04/20 01:18:39;;;;;;;3.88;2.20;;;;;;;8.51;38.99;101130.44;5084681;28;20073;-67
2021/04/20 01:21:09;;;;;;;3.78;1.92;;;;;;;8.51;38.71;101135.63;5084604;28;20031;-67
2021/04/20 01:23:35;;;;;;;4.45;2.47;;;;;;;8.53;39.01;101141.69;5084394;28;20088;-67
2021/04/20 01:26:00;;;;;;;4.47;1.90;;;;;;;8.49;39.02;101134.72;5084549;28;20036;-67
2021/04/20 01:28:27;;;;;;;6.10;1.98;;;;;;;8.47;39.31;101136.41;5084554;28;20032;-68
2021/04/20 01:30:52;;;;;;;3.90;2.03;;;;;;;8.38;39.45;101143.25;5084213;28;20039;-66
2021/04/20 01:33:18;;;;;;;3.28;1.75;;;;;;;8.32;39.59;101138.00;5084095;28;20028;-66
2021/04/20 01:35:44;;;;;;;3.58;1.60;;;;;;;8.35;39.64;101134.56;5084669;28;20028;-67
2021/04/20 01:38:09;;;;;;;3.20;1.83;;;;;;;8.27;39.81;101129.31;5084850;28;20025;-67
2021/04/20 01:40:35;;;;;;;4.03;1.88;;;;;;;8.29;39.91;101132.78;5084483;28;20057;-67
2021/04/20 01:43:02;;;;;;;5.13;2.08;;;;;;;8.21;40.00;101121.47;5092833;28;20005;-65
2021/04/20 01:45:31;;;;;;;3.47;1.85;;;;;;;8.22;40.13;101130.94;5096851;28;20032;-66
2021/04/20 01:47:59;;;;;;;4.22;1.85;;;;;;;8.14;40.35;101128.25;5095866;28;20343;-66
2021/04/20 01:50:26;;;;;;;3.97;1.85;;;;;;;8.16;40.51;101121.41;5089609;28;20049;-66
2021/04/20 01:52:52;;;;;;;7.03;2.72;;;;;;;7.99;40.60;101122.03;5083976;28;20020;-67
2021/04/20 01:55:18;;;;;;;3.22;2.10;;;;;;;7.98;40.68;101125.47;5084104;28;20031;-67
2021/04/20 01:57:47;;;;;;;7.53;2.35;;;;;;;8.01;40.68;101125.53;5083850;28;20028;-69
2021/04/20 02:00:15;;;;;;;6.07;2.58;;;;;;;7.97;40.77;101115.97;5083873;28;20025;-68
2021/04/20 02:02:41;;;;;;;3.47;1.63;;;;;;;7.99;40.70;101126.31;5083582;28;20020;-68
2021/04/20 02:05:09;;;;;;;5.15;2.13;;;;;;;8.00;40.83;101123.78;5083777;28;20024;-67
2021/04/20 02:07:38;;;;;;;4.30;1.80;;;;;;;7.96;40.97;101119.41;5083846;28;20089;-68
2021/04/20 02:10:08;;;;;;;4.10;1.88;;;;;;;7.89;40.95;101120.19;5083674;28;20024;-67
2021/04/20 02:12:36;;;;;;;3.33;1.90;;;;;;;7.84;41.00;101112.34;5083641;28;20019;-66
2021/04/20 02:15:03;;;;;;;7.82;2.70;;;;;;;7.85;41.03;101121.84;5083610;28;20021;-67
2021/04/20 02:17:28;;;;;;;5.45;2.05;;;;;;;7.81;41.04;101113.16;5083214;28;20021;-66
2021/04/20 02:19:54;;;;;;;5.95;2.08;;;;;;;7.77;41.18;101120.84;5083552;28;20035;-67
2021/04/20 02:22:20;;;;;;;8.38;2.92;;;;;;;7.73;41.28;101119.09;5083456;28;20024;-67
2021/04/20 02:24:46;;;;;;;7.75;2.45;;;;;;;7.60;41.47;101112.84;5081444;28;20523;-67
2021/04/20 02:27:12;;;;;;;4.95;2.30;;;;;;;7.49;41.78;101112.69;5083439;28;20062;-66
2021/04/20 02:29:38;;;;;;;4.07;2.15;;;;;;;7.43;41.85;101111.75;5083321;28;20042;-68
2021/04/20 02:32:05;;;;;;;4.00;2.47;;;;;;;7.35;42.06;101104.72;5082921;28;20108;-68
2021/04/20 02:34:30;;;;;;;4.80;2.58;;;;;;;7.33;41.96;101102.13;5083128;28;20440;-67
2021/04/20 02:36:56;;;;;;;3.83;2.35;;;;;;;7.37;41.97;101106.47;5083347;28;20016;-67
2021/04/20 02:39:22;;;;;;;3.72;2.13;;;;;;;7.31;42.10;101099.50;5083369;28;20111;-67
2021/04/20 02:41:48;;;;;;;6.80;2.33;;;;;;;7.31;42.33;101103.78;5083452;28;20035;-66
2021/04/20 02:44:15;;;;;;;6.43;2.60;;;;;;;7.28;42.15;101103.75;5081815;28;20028;-66
2021/04/20 02:46:42;;;;;;;8.25;2.25;;;;;;;7.25;42.27;101103.69;5082851;28;20047;-66
2021/04/20 02:49:08;;;;;;;7.25;2.35;;;;;;;7.24;42.17;101100.25;5082962;28;20040;-67
2021/04/20 02:51:35;;;;;;;5.50;2.80;;;;;;;7.25;42.19;101101.13;5083235;28;20032;-66
2021/04/20 02:54:01;;;;;;;5.00;2.55;;;;;;;7.26;42.33;101097.69;5083020;28;20028;-66
2021/04/20 02:56:28;;;;;;;4.22;2.20;;;;;;;7.24;42.31;101100.25;5083269;28;20025;-67
2021/04/20 02:58:56;;;;;;;7.38;2.40;;;;;;;7.22;42.32;101101.06;5083351;28;20021;-67
2021/04/20 03:01:26;;;;;;;4.95;2.15;;;;;;;7.18;42.31;101098.44;5082836;28;20034;-65
2021/04/20 03:03:52;;;;;;;7.38;2.40;;;;;;;7.19;42.33;101095.00;5083186;28;20016;-66
2021/04/20 03:06:19;;;;;;;4.00;2.45;;;;;;;7.20;42.16;101095.88;5087367;28;20020;-67
2021/04/20 03:08:45;;;;;;;5.57;3.00;;;;;;;7.21;42.24;101091.56;5087325;28;20053;-67
2021/04/20 03:11:15;;;;;;;5.88;2.38;;;;;;;7.18;42.21;101085.53;5086983;28;20092;-70
2021/04/20 03:13:45;;;;;;;5.03;2.20;;;;;;;7.21;42.05;101079.53;5085335;28;20047;-68
2021/04/20 03:16:13;;;;;;;4.13;2.75;;;;;;;7.29;41.76;101084.81;5086412;28;20036;-68
2021/04/20 03:18:39;;;;;;;4.82;2.72;;;;;;;7.26;41.90;101087.34;5086728;28;20024;-68
2021/04/20 03:21:07;;;;;;;3.67;2.28;;;;;;;7.32;41.64;101077.13;5085460;28;20071;-68
2021/04/20 03:23:34;;;;;;;4.05;2.33;;;;;;;7.33;41.49;101073.72;5086691;28;20327;-68
2021/04/20 03:26:00;;;;;;;4.07;2.15;;;;;;;7.40;41.27;101072.94;5086851;28;20025;-68
2021/04/20 03:28:26;;;;;;;3.80;1.98;;;;;;;7.36;41.25;101060.84;5086885;28;20021;-68
2021/04/20 03:30:53;;;;;;;5.75;2.13;;;;;;;7.44;41.19;101073.88;5086845;28;20024;-68
2021/04/20 03:33:28;;;;;;;4.97;2.70;;;;;;;7.40;40.92;101070.34;5086089;28;20012;-68
2021/04/20 03:35:58;;;;;;;5.07;2.28;;;;;;;7.38;41.15;101064.28;5086891;28;20048;-68
2021/04/20 03:38:33;;;;;;;5.15;2.58;;;;;;;7.38;41.27;101058.28;5086619;28;20044;-69
2021/04/20 03:41:06;;;;;;;5.22;2.75;;;;;;;7.32;41.06;101051.28;5086644;28;20468;-69
2021/04/20 03:43:33;;;;;;;4.40;2.72;;;;;;;7.48;41.02;101056.69;5086326;28;20074;-68
2021/04/20 03:46:07;;;;;;;5.72;2.38;;;;;;;7.49;40.88;101059.28;5086293;28;20028;-70
2021/04/20 03:48:51;;;;;;;3.70;1.50;;;;;;;7.63;40.55;101062.09;5084737;28;20112;-68
2021/04/20 03:51:26;;;;;;;5.60;2.38;;;;;;;7.59;40.67;101054.28;5086244;28;20020;-69
2021/04/20 03:53:53;;;;;;;5.22;2.20;;;;;;;7.75;40.24;101057.91;5086137;28;20035;-69
2021/04/20 03:56:24;;;;;;;4.70;1.75;;;;;;;7.84;39.77;101052.91;5085985;28;20028;-68
2021/04/20 03:58:53;;;;;;;5.00;1.98;;;;;;;7.92;39.54;101059.00;5086157;28;20051;-67
2021/04/20 04:01:19;;;;;;;3.30;1.70;;;;;;;7.83;40.00;101058.91;5084503;28;20032;-69
2021/04/20 04:03:46;;;;;;;6.28;2.13;;;;;;;7.74;40.07;101048.44;5086004;28;20028;-69
2021/04/20 04:06:12;;;;;;;6.00;2.28;;;;;;;7.76;40.39;101051.91;5086105;28;20066;-71
2021/04/20 04:08:41;;;;;;;2.13;1.52;;;;;;;7.72;40.32;101051.00;5085804;28;20627;-68
2021/04/20 04:11:08;;;;;;;2.90;1.20;;;;;;;7.79;40.29;101051.97;5086130;28;20089;-68
2021/04/20 04:13:38;;;;;;;3.47;1.50;;;;;;;7.78;40.32;101052.81;5085607;28;20035;-69
2021/04/20 04:16:05;;;;;;;4.18;1.83;;;;;;;7.57;40.82;101042.19;5085482;28;20107;-66
2021/04/20 04:18:32;;;;;;;2.58;1.50;;;;;;;7.66;40.69;101045.75;5085561;28;20016;-68
2021/04/20 04:21:03;;;;;;;2.63;1.52;;;;;;;7.74;40.49;101035.50;5085783;28;20027;-68
2021/04/20 04:23:36;;;;;;;5.32;1.98;;;;;;;7.80;40.25;101040.75;5084201;28;20108;-67
2021/04/20 04:26:06;;;;;;;4.65;2.38;;;;;;;7.81;40.50;101039.94;5085659;28;20025;-68
2021/04/20 04:28:34;;;;;;;2.92;1.58;;;;;;;8.17;39.75;101041.25;5085635;28;20044;-69
2021/04/20 04:31:03;;;;;;;9.18;2.42;;;;;;;8.17;39.98;101040.38;5085406;28;20029;-67
2021/04/20 04:33:30;;;;;;;4.22;2.20;;;;;;;8.43;39.37;101025.13;5085197;28;20070;-66
2021/04/20 04:35:57;;;;;;;3.85;1.80;;;;;;;8.66;38.88;101027.13;5084029;28;20025;-68
2021/04/20 04:38:23;;;;;;;5.63;2.08;;;;;;;8.80;38.81;101037.59;5085556;28;20029;-68
2021/04/20 04:40:49;;;;;;;4.10;2.17;;;;;;;8.87;38.65;101035.06;5085478;28;20021;-68
2021/04/20 04:43:14;;;;;;;7.10;4.03;;;;;;;9.06;38.12;101030.91;5084943;28;20520;-64
2021/04/20 04:45:40;;;;;;;5.43;2.08;;;;;;;9.26;37.71;101027.59;5084138;28;20094;-67
2021/04/20 04:48:08;;;;;;;6.65;2.70;;;;;;;9.32;37.66;101031.94;5084386;28;20028;-66
2021/04/20 04:50:35;;;;;;;3.58;1.90;;;;;;;9.50;37.29;101031.22;5084450;28;20048;-71
2021/04/20 04:53:01;;;;;;;7.22;2.33;;;;;;;9.50;37.43;101026.03;5084983;28;20041;-72
2021/04/20 04:55:27;;;;;;;5.68;2.50;;;;;;;9.77;36.96;101032.22;5085177;28;20100;-67
2021/04/20 04:57:55;;;;;;;5.10;2.40;;;;;;;9.94;36.81;101023.63;5085428;28;20714;-66
2021/04/20 05:00:22;;;;;;;4.55;2.53;;;;;;;9.99;36.34;101014.16;5083911;28;20507;-66
2021/04/20 05:02:48;;;;;;;6.55;2.80;;;;;;;10.21;36.09;101025.47;5084594;28;20029;-67
2021/04/20 05:05:15;;;;;;;3.95;2.28;;;;;;;10.47;35.49;101027.31;5084060;28;20021;-66
2021/04/20 05:07:42;;;;;;;5.72;2.15;;;;;;;10.56;35.39;101020.41;5083897;28;20358;-66
2021/04/20 05:10:10;;;;;;;4.72;1.95;;;;;;;10.65;35.19;101003.09;5084414;28;20074;-67
2021/04/20 05:12:36;;;;;;;3.88;2.22;;;;;;;10.94;34.51;101016.09;5084672;28;20473;-66
2021/04/20 05:15:21;;;;;;;4.07;1.90;;;;;;;11.19;34.23;101019.56;5084517;28;20027;-66
2021/04/20 05:17:47;;;;;;;5.32;2.15;;;;;;;11.31;33.32;101010.84;5084405;28;20122;-67
2021/04/20 05:20:17;;;;;;;6.15;2.03;;;;;;;11.20;33.71;101007.44;5084549;28;20051;-68
2021/04/20 05:22:44;;;;;;;5.20;2.08;;;;;;;11.30;33.10;101003.94;5084595;28;20070;-66
2021/04/20 05:25:12;;;;;;;2.83;1.40;;;;;;;11.25;33.16;101003.06;5082869;28;20028;-67
2021/04/20 05:27:38;;;;;;;4.05;2.10;;;;;;;11.32;33.32;101011.72;5083616;28;20025;-66
2021/04/20 05:30:05;;;;;;;5.78;1.95;;;;;;;11.39;33.23;101003.03;5084074;28;20017;-65
2021/04/20 05:32:38;;;;;;;3.78;1.85;;;;;;;11.45;33.16;100992.66;5083680;28;20094;-65
2021/04/20 05:35:05;;;;;;;4.95;2.17;;;;;;;11.48;32.89;100997.84;5083806;28;20020;-66
2021/04/20 05:37:41;;;;;;;4.22;2.00;;;;;;;11.57;33.06;100996.94;5083644;28;20026;-66
2021/04/20 05:40:27;;;;;;;3.90;1.73;;;;;;;11.87;32.50;100997.69;5083264;28;20187;-67
2021/04/20 05:42:54;;;;;;;3.85;2.25;;;;;;;12.05;32.25;100998.47;5082882;28;20020;-67
2021/04/20 05:45:21;;;;;;;5.85;1.98;;;;;;;12.09;32.16;100994.16;5083927;28;20020;-67
2021/04/20 05:47:48;;;;;;;4.75;2.22;;;;;;;12.09;32.15;100992.41;5083686;28;20027;-66
2021/04/20 05:50:19;;;;;;;6.60;2.58;;;;;;;12.36;32.16;100981.84;5083861;28;20045;-67
2021/04/20 05:52:44;;;;;;;4.50;2.65;;;;;;;12.69;31.25;100984.22;5083787;28;20066;-66
2021/04/20 05:55:10;;;;;;;5.18;2.30;;;;;;;12.73;31.46;100986.78;5083577;28;20032;-66
2021/04/20 05:57:36;;;;;;;8.20;2.17;;;;;;;13.26;31.72;100982.81;5082791;28;20044;-66
2021/04/20 06:00:05;;;;;;;7.82;2.28;;;;;;;14.05;30.15;100977.59;5083772;28;20024;-65
2021/04/20 06:02:33;;;;;;;5.45;2.28;;;;;;;14.41;28.68;100987.53;5083217;28;20016;-65
2021/04/20 06:05:04;;;;;;;8.63;2.33;;;;;;;14.45;28.86;100969.19;5083558;28;20086;-67
2021/04/20 06:07:32;;;;;;;5.47;2.20;;;;;;;14.68;28.22;100980.16;5083836;28;20025;-67
2021/04/20 06:09:58;;;;;;;7.47;2.40;;;;;;;14.94;27.85;100974.50;5083702;28;20107;-67
2021/04/20 06:12:24;;;;;;;5.60;2.60;;;;;;;15.07;27.51;100984.72;5083378;28;20095;-66
2021/04/20 06:14:53;;;;;;;5.90;2.05;;;;;;;15.18;26.69;100980.16;5083606;28;20515;-67
2021/04/20 06:17:19;;;;;;;8.00;2.40;;;;;;;15.04;27.50;100982.16;5083217;28;20035;-66
2021/04/20 06:19:45;;;;;;;10.75;2.92;;;;;;;15.17;27.40;100975.84;5083464;28;20024;-66
2021/04/20 06:22:13;;;;;;;4.15;2.05;;;;;;;15.42;26.57;100971.88;5083625;28;20102;-66
2021/04/20 06:24:39;;;;;;;6.72;2.10;;;;;;;15.47;26.48;100973.53;5083170;28;20042;-65
2021/04/20 06:27:05;;;;;;;7.43;2.15;;;;;;;15.67;26.99;100969.63;5082108;28;20107;-66
2021/04/20 06:29:30;;;;;;;3.67;2.20;;;;;;;15.96;25.98;100973.38;5083342;28;20031;-65
2021/04/20 06:31:57;;;;;;;5.18;2.55;;;;;;;16.22;26.09;100971.09;5083144;28;20024;-66
2021/04/20 06:34:23;;;;;;;6.38;2.80;;;;;;;16.45;25.03;100975.78;5083212;28;20029;-65
2021/04/20 06:36:52;;;;;;;6.10;2.38;;;;;;;16.34;25.66;100967.34;5083432;28;20059;-66
2021/04/20 06:39:20;;;;;;;11.30;2.45;;;;;;;16.58;25.57;100968.50;5083508;28;20099;-66
2021/04/20 06:41:50;;;;;;;6.72;2.22;;;;;;;16.78;25.21;100964.53;5081982;28;20037;-65
2021/04/20 06:44:21;;;;;;;4.50;1.83;;;;;;;17.36;25.26;100964.78;5083261;28;20020;-65
2021/04/20 06:46:56;;;;;;;4.57;1.98;;;;;;;17.72;24.85;100975.13;5083093;28;20048;-64
2021/04/20 06:49:39;;;;;;;7.70;2.47;;;;;;;18.22;24.28;100963.19;5083157;28;20070;-65
2021/04/20 06:52:11;;;;;;;7.55;2.30;;;;;;;18.44;23.58;100959.84;5083257;28;20020;-64
2021/04/20 06:54:49;;;;;;;8.10;2.83;;;;;;;18.48;23.28;100956.22;5083066;28;20048;-63
2021/04/20 06:57:17;;;;;;;5.95;2.53;;;;;;;18.32;22.75;100954.06;5083355;28;20032;-64
2021/04/20 06:59:55;;;;;;;5.30;2.33;;;;;;;18.21;22.40;100953.59;5081737;28;20025;-64
2021/04/20 07:03:07;;;;;;;5.47;2.30;;;;;;;18.05;22.97;100951.38;5083019;28;20017;-63
2021/04/20 07:05:38;;;;;;;5.93;1.80;;;;;;;18.05;23.07;100951.38;5072578;28;20043;-63
2021/04/20 07:08:48;;;;;;;5.15;2.05;;;;;;;18.37;23.33;100950.44;5083123;28;20032;-63
2021/04/20 07:11:15;;;;;;;9.35;2.72;;;;;;;18.66;21.76;100944.22;5070339;28;20064;-64
2021/04/20 07:13:51;;;;;;;5.32;2.05;;;;;;;18.39;21.96;100954.75;5082744;28;20020;-64
2021/04/20 07:16:25;;;;;;;4.18;1.83;;;;;;;18.36;22.15;100948.72;5081432;28;20016;-64
2021/04/20 07:19:19;;;;;;;6.75;2.15;;;;;;;18.29;21.98;100948.91;5082852;28;20028;-64
2021/04/20 07:21:59;;;;;;;6.82;2.38;;;;;;;18.21;22.55;100945.69;5083243;28;20032;-64
2021/04/20 07:24:58;;;;;;;8.88;2.33;;;;;;;18.55;22.06;100949.84;5082908;28;20021;-64
2021/04/20 07:27:55;;;;;;;3.55;2.08;;;;;;;18.86;22.21;100936.56;5082919;28;20017;-63
2021/04/20 07:30:42;;;;;;;5.50;1.75;;;;;;;19.53;21.77;100942.09;5083053;28;20021;-63
2021/04/20 07:33:16;;;;;;;5.35;2.05;;;;;;;19.80;20.86;100934.91;5082600;28;20477;-63
2021/04/20 07:36:07;;;;;;;4.65;2.20;;;;;;;19.64;20.71;100936.41;5081132;28;20051;-64
2021/04/20 07:38:43;;;;;;;5.88;2.42;;;;;;;19.72;20.73;100933.47;5082800;28;20090;-64
2021/04/20 07:41:36;;;;;;;5.53;1.73;;;;;;;19.99;20.21;100930.69;5082769;28;20027;-64
2021/04/20 07:44:07;;;;;;;4.22;1.88;;;;;;;19.98;20.07;100924.56;5082669;28;20044;-64
2021/04/20 07:46:41;;;;;;;6.30;2.10;;;;;;;19.88;19.66;100913.53;5082359;28;20258;-64
2021/04/20 07:49:17;;;;;;;4.50;1.98;;;;;;;19.94;19.59;100928.22;5082335;28;20048;-64
2021/04/20 07:51:43;;;;;;;2.67;1.63;;;;;;;19.92;19.02;100922.19;5085804;28;20032;-64
2021/04/20 07:54:36;;;;;;;3.90;2.10;;;;;;;19.77;19.35;100924.50;5086197;28;20286;-64
2021/04/20 07:57:10;;;;;;;3.72;1.85;;;;;;;19.77;18.63;100915.72;5086375;28;20036;-65
2021/04/20 07:59:49;;;;;;;6.78;2.08;;;;;;;19.56;19.24;100915.63;5086221;28;20017;-64
2021/04/20 08:02:30;;;;;;;4.30;2.95;;;;;;;19.38;19.23;100917.19;5085925;28;20032;-63
2021/04/20 08:05:36;;;;;;;3.83;2.30;;;;;;;19.85;19.07;100907.53;5086117;28;20078;-63
2021/04/20 08:08:09;;;;;;;3.80;1.90;;;;;;;19.88;19.00;100904.75;5086166;28;20238;-64
2021/04/20 08:10:50;;;;;;;4.53;2.65;;;;;;;20.36;19.04;100907.28;5086022;28;20020;-64
2021/04/20 08:13:29;;;;;;;3.63;2.13;;;;;;;20.97;17.40;100900.31;5085883;28;20492;-64
2021/04/20 08:15:57;;;;;;;5.20;2.30;;;;;;;21.14;17.38;100896.03;5085893;28;20035;-63
2021/04/20 08:18:34;;;;;;;5.40;1.80;;;;;;;21.48;17.57;100897.16;5085676;28;20068;-64
2021/04/20 08:21:02;;;;;;;2.75;1.92;;;;;;;21.99;16.69;100898.31;5085937;28;20028;-64
2021/04/20 08:23:30;;;;;;;3.95;1.98;;;;;;;22.10;16.07;100890.72;5085710;28;20362;-64
2021/04/20 08:26:19;;;;;;;5.05;2.10;;;;;;;22.29;16.32;100882.72;5085706;28;20096;-63
2021/04/20 08:28:54;;;;;;;3.45;1.95;;;;;;;22.88;15.25;100891.25;5085813;28;20036;-64
2021/04/20 08:31:30;;;;;;;3.88;2.05;;;;;;;22.50;14.41;100877.28;5085603;28;20032;-64
2021/04/20 08:34:03;;;;;;;5.63;2.17;;;;;;;22.05;15.14;100882.16;5085550;28;20054;-64
2021/04/20 08:36:41;;;;;;;4.25;1.95;;;;;;;22.40;14.66;100883.94;5084299;28;20024;-64
2021/04/20 08:39:29;;;;;;;4.53;1.90;;;;;;;22.51;14.73;100875.47;5085636;28;20618;-64
2021/04/20 08:42:07;;;;;;;2.55;1.95;;;;;;;22.87;14.06;100879.81;5085698;28;20352;-64
2021/04/20 08:44:42;;;;;;;4.35;2.08;;;;;;;22.75;13.76;100876.00;5085398;28;20036;-64
2021/04/20 08:47:26;;;;;;;4.78;1.92;;;;;;;22.80;14.20;100878.41;5085150;28;20021;-64
2021/04/20 08:50:14;;;;;;;3.72;1.70;;;;;;;23.08;13.92;100869.03;5085167;28;20067;-64
2021/04/20 08:53:01;;;;;;;5.30;2.00;;;;;;;23.31;13.66;100864.25;5085093;28;20092;-64
2021/04/20 08:55:54;;;;;;;4.90;1.90;;;;;;;24.07;13.93;100866.25;5084986;28;20093;-64
2021/04/20 08:58:35;;;;;;;5.68;1.45;;;;;;;24.29;11.79;100860.56;5085042;28;20594;-66
2021/04/20 09:01:37;;;;;;;3.15;1.77;;;;;;;22.89;12.97;100864.69;5084998;28;20024;-66
2021/04/20 09:04:40;;;;;;;2.45;1.50;;;;;;;23.00;14.05;100864.13;5084935;28;20099;-66
2021/04/20 09:07:26;;;;;;;4.60;2.00;;;;;;;24.00;13.37;100853.34;5085145;28;20099;-65
2021/04/20 09:09:53;;;;;;;3.72;1.98;;;;;;;24.31;12.88;100853.38;5085230;28;20342;-66
2021/04/20 09:12:22;;;;;;;3.90;2.15;;;;;;;24.64;12.25;100854.06;5085033;28;20031;-65
2021/04/20 09:14:49;;;;;;;5.47;1.77;;;;;;;24.87;12.25;100854.47;5084967;28;20025;-65
2021/04/20 09:17:19;;;;;;;4.72;2.20;;;;;;;24.80;12.25;100867.25;5084591;28;20052;-66
2021/04/20 09:19:49;;;;;;;3.25;2.03;;;;;;;24.16;12.50;100857.78;5084854;28;20031;-66
2021/04/20 09:22:51;;;;;;;6.85;2.05;;;;;;;24.07;12.72;100848.56;5084635;28;20025;-66
2021/04/20 09:25:30;;;;;;;4.60;2.00;;;;;;;23.72;12.26;100856.75;5084807;28;20055;-66
2021/04/20 09:28:16;;;;;;;4.65;1.67;;;;;;;22.97;13.12;100850.22;5084718;28;20028;-66
2021/04/20 09:30:52;;;;;;;4.85;1.65;;;;;;;22.95;13.00;100852.06;5083903;28;20362;-67
2021/04/20 09:33:21;;;;;;;4.22;1.73;;;;;;;23.10;13.22;100853.06;5082344;28;20032;-66
2021/04/20 09:35:48;;;;;;;4.78;1.85;;;;;;;23.95;12.91;100846.59;5084073;28;20020;-66
2021/04/20 09:38:15;;;;;;;5.00;2.30;;;;;;;24.55;12.66;100841.38;5084397;28;20551;-66
2021/04/20 09:40:42;;;;;;;4.25;2.33;;;;;;;25.20;11.84;100842.69;5083400;28;20096;-66
2021/04/20 09:43:31;;;;;;;3.65;1.83;;;;;;;25.24;11.95;100838.03;5083724;28;20016;-66
2021/04/20 09:46:09;;;;;;;3.60;2.00;;;;;;;25.47;11.94;100833.88;5084207;28;20024;-66
2021/04/20 09:48:46;;;;;;;4.32;2.15;;;;;;;25.45;11.20;100838.44;5082421;28;20060;-66
2021/04/20 09:51:16;;;;;;;4.57;2.00;;;;;;;25.52;11.82;100824.75;5084241;28;20029;-65
2021/04/20 09:53:44;;;;;;;4.13;1.90;;;;;;;26.36;11.47;100828.09;5084254;28;20021;-67
2021/04/20 09:56:36;;;;;;;4.60;1.60;;;;;;;27.35;10.83;100826.53;5084033;28;20032;-65
2021/04/20 09:59:07;;;;;;;4.20;1.80;;;;;;;28.22;9.73;100824.59;5084305;28;20037;-66
2021/04/20 10:01:57;;;;;;;3.50;1.35;;;;;;;27.91;10.15;100816.28;5084138;28;20103;-66
2021/04/20 10:04:40;;;;;;;3.42;1.88;;;;;;;28.15;8.74;100818.88;5083123;28;20044;-66
2021/04/20 10:07:22;;;;;;;4.13;1.88;;;;;;;27.02;9.96;100809.38;5083893;28;20028;-65
2021/04/20 10:09:51;;;;;;;6.15;1.75;;;;;;;27.38;9.81;100815.66;5082520;28;20441;-66
2021/04/20 10:12:47;;;;;;;3.72;1.75;;;;;;;27.00;9.77;100809.50;5083636;28;20029;-67
2021/04/20 10:15:26;;;;;;;4.25;1.70;;;;;;;26.83;10.46;100802.69;5082204;28;20058;-66
2021/04/20 10:18:14;;;;;;;5.32;1.80;;;;;;;26.65;10.05;100800.38;5083327;28;20031;-66
2021/04/20 10:20:52;;;;;;;3.58;1.95;;;;;;;26.82;10.37;100798.34;5083560;28;20021;-65
2021/04/20 10:23:36;;;;;;;4.38;1.85;;;;;;;27.56;9.58;100786.78;5083598;28;20069;-66
2021/04/20 10:26:14;;;;;;;2.97;1.50;;;;;;;27.47;9.73;100779.47;5083425;28;20072;-66
2021/04/20 10:28:54;;;;;;;6.55;1.65;;;;;;;27.53;9.88;100773.69;5083770;28;20024;-65
2021/04/20 10:31:23;;;;;;;3.88;2.03;;;;;;;27.78;9.77;100779.03;5083733;28;20059;-65
2021/04/20 10:33:51;;;;;;;4.25;1.85;;;;;;;27.44;9.95;100775.25;5083692;28;20020;-65
2021/04/20 10:36:22;;;;;;;6.97;2.42;;;;;;;26.80;10.04;100785.13;5083409;28;20029;-65
2021/04/20 10:38:48;;;;;;;2.95;1.70;;;;;;;25.99;10.92;100778.22;5083637;28;20032;-64
2021/04/20 10:41:40;;;;;;;7.57;2.33;;;;;;;26.41;11.30;100774.53;5083397;28;20029;-65
2021/04/20 10:44:12;;;;;;;6.72;1.95;;;;;;;27.25;11.78;100770.44;5082221;28;20095;-65
2021/04/20 10:46:39;;;;;;;5.18;1.60;;;;;;;28.04;11.55;100762.81;5082973;28;20027;-65
2021/04/20 10:49:06;;;;;;;4.13;1.60;;;;;;;28.53;11.21;100757.31;5081674;28;20060;-66
2021/04/20 10:51:37;;;;;;;7.40;2.17;;;;;;;28.54;11.34;100753.66;5083102;28;20032;-66
2021/04/20 10:54:05;;;;;;;6.20;1.98;;;;;;;28.60;11.29;100752.31;5083339;28;20020;-65
2021/04/20 10:56:32;;;;;;;3.42;2.22;;;;;;;28.58;11.15;100755.94;5081977;28;20096;-66
2021/04/20 10:59:00;;;;;;;5.45;2.38;;;;;;;28.62;11.08;100753.91;5083424;28;20365;-67
2021/04/20 11:01:29;;;;;;;4.25;1.95;;;;;;;28.40;11.20;100755.63;5083228;28;20020;-67
2021/04/20 11:04:00;;;;;;;2.83;1.58;;;;;;;28.03;10.75;100742.44;5083042;28;20466;-66
2021/04/20 11:07:03;;;;;;;4.57;2.10;;;;;;;27.74;11.09;100742.88;5082799;28;20044;-66
2021/04/20 11:09:33;;;;;;;5.68;1.77;;;;;;;28.05;11.57;100741.34;5082895;28;20027;-66
2021/04/20 11:11:58;;;;;;;6.82;1.85;;;;;;;28.28;10.97;100737.84;5083026;28;20111;-65
2021/04/20 11:14:56;;;;;;;5.05;1.90;;;;;;;28.33;10.95;100735.69;5082793;28;20457;-66
2021/04/20 11:17:22;;;;;;;4.57;1.80;;;;;;;28.70;10.71;100731.91;5059488;28;20036;-65
2021/04/20 11:19:55;;;;;;;3.28;1.63;;;;;;;28.89;10.60;100720.56;5083008;28;20036;-66
2021/04/20 11:22:23;;;;;;;4.28;2.45;;;;;;;28.96;10.48;100726.31;5083184;28;20013;-66
2021/04/20 11:24:56;;;;;;;4.45;1.60;;;;;;;28.37;10.44;100715.78;5082757;28;20571;-66
2021/04/20 11:27:26;;;;;;;5.32;1.83;;;;;;;26.67;11.26;100717.72;5086754;28;20118;-66
2021/04/20 11:30:02;;;;;;;3.95;1.80;;;;;;;25.10;12.53;100709.59;5086740;28;20056;-66
2021/04/20 11:32:28;;;;;;;4.43;2.22;;;;;;;23.73;13.84;100708.22;5086343;28;20024;-66
2021/04/20 11:34:56;;;;;;;3.40;1.90;;;;;;;22.74;14.62;100726.13;5086630;28;20047;-67
2021/04/20 11:37:24;;;;;;;6.97;2.00;;;;;;;21.81;15.22;100720.38;5086758;28;20019;-67
2021/04/20 11:40:07;;;;;;;5.93;1.88;;;;;;;20.86;15.98;100707.28;5086543;28;20057;-67
2021/04/20 11:42:37;;;;;;;6.43;1.92;;;;;;;20.01;17.16;100708.38;5086476;28;20043;-67
2021/04/20 11:45:15;;;;;;;4.93;2.17;;;;;;;19.41;17.80;100706.50;5086193;28;20024;-68
2021/04/20 11:48:05;;;;;;;5.15;2.13;;;;;;;19.05;18.87;100706.09;5086026;28;20469;-68
2021/04/20 11:50:34;;;;;;;10.90;2.00;;;;;;;18.66;19.08;100704.91;5086335;28;20064;-68